Weather at Red Berry Heliport

Public forecast

Using degrees Fahrenheit for public forecast. Weather courtesy of forecast.io.

Closest aviation weather report (METAR) to Red Berry Heliport

Closest report is Stinson Municipal Airport, 6.5 nm (12.0 km) SSW.

2024/07/17 18:53 (retrieved 49 minutes ago)

KSSF 171853Z 16005KT 10SM SCT047 33/21 A2998 RMK AO2 SLP140 T03330211

Closest aviation forecast (TAF) to Red Berry Heliport

Closest forecast is Stinson Municipal Airport, 6.5 nm (12.0 km) SSW.

2024/07/17 18:27 (retrieved 1 hour ago)

TAF KSSF 171725Z 1718/1818 18008KT P6SM FEW050 FM180600 18003KT P6SM SCT025 BKN150 FM181200 VRB03KT P6SM VCSH SCT025 BKN050 PROB30 1815/1818 -TSRA BKN050CB